Time;durP1;ratioP1;P1;durP2;ratioP2;P2;SDS_P1;SDS_P2;PMS_P1;PMS_P2;Temp;Humidity;BMP_temperature;BMP_pressure;BME280_temperature;BME280_humidity;BME280_pressure;Samples;Min_cycle;Max_cycle;Signal;HPM_P1;HPM_P2
2023/04/26 00:01:39;;;;;;;;;;;;;;;30.61;65.48;100863.66;5099259;27;65964;-42
2023/04/26 00:04:09;;;;;;;;;;;;;;;30.63;65.55;100861.56;5126282;27;70392;-40
2023/04/26 00:06:40;;;;;;;;;;;;;;;30.63;65.73;100867.00;5120852;27;66818;-41
2023/04/26 00:09:10;;;;;;;;;;;;;;;30.65;65.88;100869.50;5129508;27;69124;-42
2023/04/26 00:11:40;;;;;;;;;;;;;;;30.65;65.18;100878.44;5121662;27;66668;-43
2023/04/26 00:14:10;;;;;;;;;;;;;;;30.66;63.19;100888.22;5100756;27;69948;-41
2023/04/26 00:16:40;;;;;;;;;;;;;;;30.71;61.79;100888.38;5126921;27;66967;-41
2023/04/26 00:19:11;;;;;;;;;;;;;;;30.79;60.91;100889.19;5121698;27;69918;-40
2023/04/26 00:21:42;;;;;;;;;;;;;;;30.84;61.50;100897.47;5106402;27;65657;-42
2023/04/26 00:24:12;;;;;;;;;;;;;;;30.90;61.51;100904.75;5124923;27;70437;-41
2023/04/26 00:26:42;;;;;;;;;;;;;;;30.96;60.89;100916.59;5108535;27;65702;-42
2023/04/26 00:29:12;;;;;;;;;;;;;;;31.00;60.49;100910.50;5121093;27;69350;-42
2023/04/26 00:31:42;;;;;;;;;;;;;;;31.05;60.98;100909.84;5129178;27;66031;-39
2023/04/26 00:34:13;;;;;;;;;;;;;;;31.08;60.23;100915.63;5121832;27;70758;-43
2023/04/26 00:36:43;;;;;;;;;;;;;;;31.12;60.60;100910.59;5108068;27;65808;-42
2023/04/26 00:39:15;;;;;;;;;;;;;;;30.91;64.27;100866.59;5116042;27;70544;-43
2023/04/26 00:41:45;;;;;;;;;;;;;;;31.26;64.64;100916.72;5128284;27;66189;-42
2023/04/26 00:44:15;;;;;;;;;;;;;;;31.27;64.85;100915.69;5116619;27;70573;-43
2023/04/26 00:46:45;;;;;;;;;;;;;;;31.32;64.41;100916.69;5112206;27;66718;-40
2023/04/26 00:49:16;;;;;;;;;;;;;;;31.30;62.36;100923.38;5106473;27;70398;-41
2023/04/26 00:51:47;;;;;;;;;;;;;;;31.29;61.58;100925.28;5127468;27;66466;-41
2023/04/26 00:54:18;;;;;;;;;;;;;;;31.33;61.63;100928.34;5130634;27;69883;-41
2023/04/26 00:56:52;;;;;;;;;;;;;;;31.36;61.42;100930.66;5120702;27;59693;-41
2023/04/26 00:59:22;;;;;;;;;;;;;;;31.39;61.17;100927.50;5130103;27;70411;-42
2023/04/26 01:01:52;;;;;;;;;;;;;;;31.43;60.72;100928.72;5111625;27;65565;-43
2023/04/26 01:04:26;;;;;;;;;;;;;;;31.45;60.54;100925.78;5112029;27;69694;-42
2023/04/26 01:06:56;;;;;;;;;;;;;;;31.47;60.46;100929.91;5109567;27;65336;-41
2023/04/26 01:09:27;;;;;;;;;;;;;;;31.52;60.77;100927.38;5109799;27;70361;-41
2023/04/26 01:12:00;;;;;;;;;;;;;;;31.53;60.48;100929.00;5124227;27;66287;-42
2023/04/26 01:14:31;;;;;;;;;;;;;;;31.55;60.78;100937.75;5130686;27;70324;-42
2023/04/26 01:17:02;;;;;;;;;;;;;;;31.58;60.54;100929.19;5135030;27;66596;-41
2023/04/26 01:19:36;;;;;;;;;;;;;;;31.60;60.80;100924.38;5118950;27;69701;-42
2023/04/26 01:22:06;;;;;;;;;;;;;;;31.63;60.77;100924.97;5105930;27;66889;-42
2023/04/26 01:24:36;;;;;;;;;;;;;;;31.66;60.43;100927.25;5104143;27;69786;-39
2023/04/26 01:27:06;;;;;;;;;;;;;;;31.67;60.49;100928.88;5131409;27;67211;-42
2023/04/26 01:29:36;;;;;;;;;;;;;;;31.68;59.94;100923.25;5130300;27;70104;-43
2023/04/26 01:32:07;;;;;;;;;;;;;;;31.72;59.66;100926.34;5131211;27;66015;-41
2023/04/26 01:34:37;;;;;;;;;;;;;;;31.73;59.16;100927.97;5126621;27;70012;-41
2023/04/26 01:37:07;;;;;;;;;;;;;;;31.75;59.27;100925.88;5111496;27;66356;-43
2023/04/26 01:39:37;;;;;;;;;;;;;;;31.76;59.41;100928.38;5111192;27;69738;-41
2023/04/26 01:42:07;;;;;;;;;;;;;;;31.80;59.36;100928.75;5102999;27;65903;-41
2023/04/26 01:44:38;;;;;;;;;;;;;;;31.81;58.99;100936.66;5129999;27;69428;-41
2023/04/26 01:47:08;;;;;;;;;;;;;;;31.84;58.70;100940.78;5125839;27;66788;-40
2023/04/26 01:49:38;;;;;;;;;;;;;;;31.87;58.93;100947.66;5110994;27;70159;-43
2023/04/26 01:52:09;;;;;;;;;;;;;;;31.88;58.64;100936.59;5120726;27;66846;-41
2023/04/26 01:54:39;;;;;;;;;;;;;;;31.90;58.37;100933.63;5129031;27;70389;-41
2023/04/26 01:57:09;;;;;;;;;;;;;;;31.92;58.39;100932.41;5107553;27;66690;-41
2023/04/26 01:59:39;;;;;;;;;;;;;;;31.94;58.26;100930.28;5108598;27;70558;-42
2023/04/26 02:02:09;;;;;;;;;;;;;;;31.97;58.40;100929.00;5133385;27;66984;-41
2023/04/26 02:04:40;;;;;;;;;;;;;;;31.98;58.19;100931.50;5129973;27;70297;-41
2023/04/26 02:07:10;;;;;;;;;;;;;;;32.01;58.05;100931.06;5126109;27;66255;-42
2023/04/26 02:09:46;;;;;;;;;;;;;;;32.04;57.98;100935.19;5130670;27;69475;-40
2023/04/26 02:12:16;;;;;;;;;;;;;;;32.03;58.12;100923.50;5131493;27;66317;-42
2023/04/26 02:14:46;;;;;;;;;;;;;;;32.07;57.93;100932.03;5134064;27;68920;-40
2023/04/26 02:17:17;;;;;;;;;;;;;;;32.10;57.64;100930.75;5114228;27;64844;-42
2023/04/26 02:19:47;;;;;;;;;;;;;;;32.12;57.71;100928.63;5112795;27;70068;-42
2023/04/26 02:22:17;;;;;;;;;;;;;;;32.14;57.52;100930.03;5112617;27;65870;-41
2023/04/26 02:24:48;;;;;;;;;;;;;;;32.17;57.68;100926.06;5135399;27;70360;-41
2023/04/26 02:27:19;;;;;;;;;;;;;;;32.20;57.55;100922.88;5134120;27;65696;-41
2023/04/26 02:29:50;;;;;;;;;;;;;;;32.22;57.66;100926.19;5131527;27;70544;-41
2023/04/26 02:32:20;;;;;;;;;;;;;;;32.24;57.43;100913.22;5133847;27;66140;-40
2023/04/26 02:34:51;;;;;;;;;;;;;;;32.25;57.24;100910.28;5130018;27;70039;-41
2023/04/26 02:37:21;;;;;;;;;;;;;;;32.28;57.05;100909.00;5134582;27;65115;-41
2023/04/26 02:39:51;;;;;;;;;;;;;;;32.31;56.97;100896.84;5126243;27;70780;-41
2023/04/26 02:42:21;;;;;;;;;;;;;;;32.35;56.75;100900.78;5106909;27;64382;-41
2023/04/26 02:44:51;;;;;;;;;;;;;;;32.36;56.95;100897.00;5106256;27;70799;-41
2023/04/26 02:47:23;;;;;;;;;;;;;;;32.39;56.85;100889.22;5122608;27;66068;-42
2023/04/26 02:49:54;;;;;;;;;;;;;;;32.40;56.65;100880.03;5120224;27;70300;-42
2023/04/26 02:52:25;;;;;;;;;;;;;;;32.43;56.51;100879.56;5120372;27;66001;-41
2023/04/26 02:54:55;;;;;;;;;;;;;;;32.45;56.46;100882.84;5126790;27;69798;-43
2023/04/26 02:57:26;;;;;;;;;;;;;;;32.48;56.22;100881.59;5140951;27;67200;-43
2023/04/26 02:59:56;;;;;;;;;;;;;;;32.52;56.14;100871.13;5119605;27;69868;-44
2023/04/26 03:02:27;;;;;;;;;;;;;;;32.55;56.29;100873.38;5101751;27;65884;-42
2023/04/26 03:04:58;;;;;;;;;;;;;;;32.57;56.09;100871.22;5121214;27;70242;-43
2023/04/26 03:07:28;;;;;;;;;;;;;;;32.59;56.05;100867.22;5121498;27;66638;-41
2023/04/26 03:09:59;;;;;;;;;;;;;;;32.62;55.97;100860.50;5133377;27;70613;-42
2023/04/26 03:12:30;;;;;;;;;;;;;;;32.64;55.74;100858.38;5117181;27;66549;-41
2023/04/26 03:15:02;;;;;;;;;;;;;;;32.67;55.73;100857.91;5116773;27;70397;-42
2023/04/26 03:17:33;;;;;;;;;;;;;;;32.69;55.47;100853.91;5091321;27;64884;-42
2023/04/26 03:20:05;;;;;;;;;;;;;;;32.72;55.72;100839.03;5107946;27;69376;-43
2023/04/26 03:22:35;;;;;;;;;;;;;;;32.75;55.37;100844.00;5119247;27;66850;-44
2023/04/26 03:25:06;;;;;;;;;;;;;;;32.78;55.40;100838.09;5113727;27;70318;-41
2023/04/26 03:27:36;;;;;;;;;;;;;;;32.81;55.18;100848.47;5094144;27;66266;-41
2023/04/26 03:30:07;;;;;;;;;;;;;;;32.83;55.22;100838.22;5134653;27;70224;-41
2023/04/26 03:32:39;;;;;;;;;;;;;;;32.85;55.09;100833.38;5103199;27;65982;-42
2023/04/26 03:35:09;;;;;;;;;;;;;;;32.87;55.14;100831.25;5113557;27;68949;-42
2023/04/26 03:37:39;;;;;;;;;;;;;;;32.89;54.95;100831.84;5128525;27;66907;-41
2023/04/26 03:40:13;;;;;;;;;;;;;;;32.93;55.15;100824.88;5111615;27;69653;-42
2023/04/26 03:42:43;;;;;;;;;;;;;;;32.94;54.80;100831.97;5108369;27;66898;-41
2023/04/26 03:45:13;;;;;;;;;;;;;;;32.97;54.66;100819.81;5106169;27;68266;-41
2023/04/26 03:47:43;;;;;;;;;;;;;;;33.00;54.59;100821.25;5109017;27;66695;-41
2023/04/26 03:50:14;;;;;;;;;;;;;;;33.00;54.44;100811.22;5099916;27;70319;-41
2023/04/26 03:52:44;;;;;;;;;;;;;;;33.04;54.28;100808.84;5106831;27;66032;-41
2023/04/26 03:55:14;;;;;;;;;;;;;;;33.06;54.36;100802.09;5100175;27;69936;-42
2023/04/26 03:57:44;;;;;;;;;;;;;;;33.09;54.36;100800.81;5112198;27;66952;-42
2023/04/26 04:00:15;;;;;;;;;;;;;;;33.09;54.14;100795.38;5104954;27;70779;-41
2023/04/26 04:02:48;;;;;;;;;;;;;;;33.12;53.96;100790.28;5114798;27;67028;-41
2023/04/26 04:05:24;;;;;;;;;;;;;;;33.13;54.04;100778.34;5100696;27;70894;-41
2023/04/26 04:07:55;;;;;;;;;;;;;;;33.17;54.05;100786.84;5100242;27;66361;-42
2023/04/26 04:10:25;;;;;;;;;;;;;;;33.20;53.84;100780.13;5103593;27;69807;-42
2023/04/26 04:12:55;;;;;;;;;;;;;;;33.22;53.91;100772.56;5096900;27;65947;-41
2023/04/26 04:15:26;;;;;;;;;;;;;;;33.24;53.79;100771.25;5107506;27;70109;-41
2023/04/26 04:17:56;;;;;;;;;;;;;;;33.26;53.76;100769.09;5101830;27;65582;-43
2023/04/26 04:20:26;;;;;;;;;;;;;;;33.28;53.81;100766.97;5122016;27;68768;-42
2023/04/26 04:23:03;;;;;;;;;;;;;;;33.30;53.55;100764.03;5099173;27;66801;-41
2023/04/26 04:25:33;;;;;;;;;;;;;;;33.30;53.54;100756.69;5091514;27;69059;-41
2023/04/26 04:28:07;;;;;;;;;;;;;;;33.34;53.38;100760.56;5100204;27;66588;-44
2023/04/26 04:30:38;;;;;;;;;;;;;;;33.36;53.36;100753.00;5108170;27;71297;-41
2023/04/26 04:33:09;;;;;;;;;;;;;;;33.37;53.38;100754.66;5103919;27;66131;-42
2023/04/26 04:35:40;;;;;;;;;;;;;;;33.40;53.29;100749.81;5113030;27;70415;-42
2023/04/26 04:38:10;;;;;;;;;;;;;;;33.41;53.50;100738.72;5104224;27;66592;-41
2023/04/26 04:40:41;;;;;;;;;;;;;;;33.44;53.22;100731.97;5105101;27;70349;-43
2023/04/26 04:43:11;;;;;;;;;;;;;;;33.46;53.32;100735.25;5106814;27;66382;-42
2023/04/26 04:45:42;;;;;;;;;;;;;;;33.48;53.35;100730.41;5098642;27;71601;-44
2023/04/26 04:48:12;;;;;;;;;;;;;;;33.49;53.12;100721.16;5126141;27;66168;-42
2023/04/26 04:50:44;;;;;;;;;;;;;;;33.52;52.95;100723.41;5097136;27;70388;-42
2023/04/26 04:53:15;;;;;;;;;;;;;;;33.53;52.82;100717.75;5097834;27;66650;-42
2023/04/26 04:55:46;;;;;;;;;;;;;;;33.56;52.91;100725.44;5117391;27;70173;-42
2023/04/26 04:58:17;;;;;;;;;;;;;;;33.55;52.84;100707.47;5100119;27;66891;-41
2023/04/26 05:00:49;;;;;;;;;;;;;;;33.59;52.53;100708.63;5102548;27;70714;-43
2023/04/26 05:03:24;;;;;;;;;;;;;;;33.61;52.61;100697.50;5099147;27;65707;-43
2023/04/26 05:05:55;;;;;;;;;;;;;;;33.63;52.31;100687.22;5127570;27;70729;-41
2023/04/26 05:08:25;;;;;;;;;;;;;;;33.66;52.38;100697.59;5112299;27;66174;-42
2023/04/26 05:10:59;;;;;;;;;;;;;;;33.67;52.57;100693.81;5106664;27;69626;-43
2023/04/26 05:13:29;;;;;;;;;;;;;;;33.70;52.33;100692.50;5095040;27;66846;-42
2023/04/26 05:16:00;;;;;;;;;;;;;;;33.71;52.14;100684.09;5121029;27;70377;-42
2023/04/26 05:18:30;;;;;;;;;;;;;;;33.72;52.13;100672.16;5100266;27;66348;-43
2023/04/26 05:21:04;;;;;;;;;;;;;;;33.74;52.13;100672.72;5110469;27;70844;-42
2023/04/26 05:23:34;;;;;;;;;;;;;;;33.75;52.21;100674.38;5101584;27;65301;-42
2023/04/26 05:26:05;;;;;;;;;;;;;;;33.78;52.14;100664.91;5117846;27;69849;-42
2023/04/26 05:28:57;;;;;;;;;;;;;;;33.80;52.14;100674.47;5100982;27;65757;-42
2023/04/26 05:31:34;;;;;;;;;;;;;;;33.83;51.83;100665.00;5098038;27;69857;-42
2023/04/26 05:34:10;;;;;;;;;;;;;;;33.83;52.17;100659.56;5104070;27;66701;-42
2023/04/26 05:36:41;;;;;;;;;;;;;;;33.87;51.86;100655.25;5124484;27;69342;-42
2023/04/26 05:39:11;;;;;;;;;;;;;;;33.87;52.06;100649.00;5134541;27;66551;-43
2023/04/26 05:41:41;;;;;;;;;;;;;;;33.87;51.77;100649.81;5102475;27;70666;-42
2023/04/26 05:44:12;;;;;;;;;;;;;;;33.91;51.73;100656.44;5124600;27;66111;-41
2023/04/26 05:46:42;;;;;;;;;;;;;;;33.90;51.36;100643.88;5122548;27;69928;-43
2023/04/26 05:49:12;;;;;;;;;;;;;;;33.94;51.17;100638.78;5109654;27;67064;-43
2023/04/26 05:51:42;;;;;;;;;;;;;;;33.95;51.43;100630.34;5101782;27;70394;-43
2023/04/26 05:54:12;;;;;;;;;;;;;;;33.98;51.64;100632.59;5117696;27;66275;-42
2023/04/26 05:56:43;;;;;;;;;;;;;;;33.98;51.39;100624.41;5111335;27;70332;-42
2023/04/26 05:59:13;;;;;;;;;;;;;;;34.01;51.39;100621.19;5120726;27;66676;-42
2023/04/26 06:01:44;;;;;;;;;;;;;;;34.02;51.09;100616.59;5108935;27;68942;-44
2023/04/26 06:04:14;;;;;;;;;;;;;;;34.05;51.13;100612.59;5125677;27;67042;-42
2023/04/26 06:06:59;;;;;;;;;;;;;;;34.07;51.15;100605.81;5114735;27;70506;-41
2023/04/26 06:09:32;;;;;;;;;;;;;;;34.10;50.89;100596.31;5101022;27;66831;-43
2023/04/26 06:15:38;;;;;;;;;;;;;;;34.14;51.26;100579.25;5101477;27;66239;-43
2023/04/26 06:21:41;;;;;;;;;;;;;;;34.20;51.01;100567.34;5111843;27;65115;-42
2023/04/26 06:24:11;;;;;;;;;;;;;;;34.24;50.95;100562.22;5125532;27;69623;-42
2023/04/26 06:27:18;;;;;;;;;;;;;;;34.25;50.97;100559.25;5104021;27;64958;-42
2023/04/26 06:29:50;;;;;;;;;;;;;;;34.28;50.64;100554.41;5121009;27;69699;-42
2023/04/26 06:32:21;;;;;;;;;;;;;;;34.32;50.95;100547.34;5106279;27;66383;-42
2023/04/26 06:35:30;;;;;;;;;;;;;;;34.34;50.96;100539.78;5110485;27;69717;-43
2023/04/26 06:39:05;;;;;;;;;;;;;;;34.38;50.53;100535.44;5101465;27;66801;-42
2023/04/26 06:41:44;;;;;;;;;;;;;;;34.41;50.94;100529.53;5090905;27;69536;-42
2023/04/26 06:44:25;;;;;;;;;;;;;;;34.45;50.99;100525.22;5119253;27;66109;-41
2023/04/26 06:47:02;;;;;;;;;;;;;;;34.46;50.87;100521.41;5102443;27;70210;-43
2023/04/26 06:49:32;;;;;;;;;;;;;;;34.49;50.77;100515.44;5130502;27;66749;-42
2023/04/26 06:52:03;;;;;;;;;;;;;;;34.50;50.79;100519.81;5102853;27;69732;-41
2023/04/26 06:54:33;;;;;;;;;;;;;;;34.53;50.57;100513.06;5123476;27;65948;-42
2023/04/26 06:57:07;;;;;;;;;;;;;;;34.54;50.34;100509.25;5109113;27;70662;-43
2023/04/26 07:00:04;;;;;;;;;;;;;;;34.58;50.51;100502.25;5104536;27;66838;-41
2023/04/26 07:02:52;;;;;;;;;;;;;;;34.61;50.41;100508.00;5119283;27;70180;-40
2023/04/26 07:06:01;;;;;;;;;;;;;;;34.63;50.16;100489.53;5111251;27;65097;-43
2023/04/26 07:08:31;;;;;;;;;;;;;;;34.65;50.58;100498.22;5113350;27;69954;-41
2023/04/26 07:11:01;;;;;;;;;;;;;;;34.67;50.08;100490.63;5100066;27;66339;-41
2023/04/26 07:13:32;;;;;;;;;;;;;;;34.68;50.09;100486.81;5121302;27;69052;-41
2023/04/26 07:16:02;;;;;;;;;;;;;;;34.70;50.02;100484.66;5123793;27;65558;-42
2023/04/26 07:18:33;;;;;;;;;;;;;;;34.73;49.90;100482.53;5121594;27;69315;-42
2023/04/26 07:21:03;;;;;;;;;;;;;;;34.74;50.00;100484.16;5123191;27;66522;-41
2023/04/26 07:23:33;;;;;;;;;;;;;;;34.76;50.02;100479.28;5119447;27;70374;-48
2023/04/26 07:26:04;;;;;;;;;;;;;;;34.77;50.15;100470.88;5128544;27;66148;-41
2023/04/26 07:28:34;;;;;;;;;;;;;;;34.78;50.28;100458.88;5099745;27;69787;-42
2023/04/26 07:31:04;;;;;;;;;;;;;;;34.82;49.80;100456.44;5132289;27;66659;-42
2023/04/26 07:33:37;;;;;;;;;;;;;;;34.86;49.99;100449.44;5117642;27;70414;-41
2023/04/26 07:36:08;;;;;;;;;;;;;;;34.88;49.81;100452.69;5128269;27;66688;-41
2023/04/26 07:38:38;;;;;;;;;;;;;;;34.88;49.65;100442.63;5124374;27;70100;-41
2023/04/26 07:41:08;;;;;;;;;;;;;;;34.92;49.76;100442.94;5135022;27;65754;-43
2023/04/26 07:43:39;;;;;;;;;;;;;;;34.92;50.08;100437.47;5124313;27;70162;-41
2023/04/26 07:46:09;;;;;;;;;;;;;;;34.95;49.52;100438.88;5130000;27;66217;-41
2023/04/26 07:48:39;;;;;;;;;;;;;;;34.97;49.58;100439.44;5089638;27;69076;-41
2023/04/26 07:51:10;;;;;;;;;;;;;;;34.99;49.68;100437.25;5126363;27;66401;-42
2023/04/26 07:53:40;;;;;;;;;;;;;;;35.00;49.60;100438.91;5127443;27;70461;-43
2023/04/26 07:56:10;;;;;;;;;;;;;;;35.03;49.59;100441.13;5121402;27;66239;-41
2023/04/26 07:58:40;;;;;;;;;;;;;;;35.04;49.35;100438.13;5130274;27;69822;-42
2023/04/26 08:01:11;;;;;;;;;;;;;;;35.06;49.30;100437.91;5116886;27;66089;-41
2023/04/26 08:03:43;;;;;;;;;;;;;;;35.06;49.57;100436.00;5119743;27;69949;-42
2023/04/26 08:06:15;;;;;;;;;;;;;;;35.07;49.32;100436.81;5118605;27;66919;-41
2023/04/26 08:08:49;;;;;;;;;;;;;;;35.06;49.33;100433.28;5119660;27;70636;-42
2023/04/26 08:11:19;;;;;;;;;;;;;;;35.07;49.39;100439.53;5120635;27;66960;-42
2023/04/26 08:13:49;;;;;;;;;;;;;;;35.07;49.61;100440.34;5119810;27;69640;-42
2023/04/26 08:16:19;;;;;;;;;;;;;;;35.08;49.38;100433.03;5117154;27;66813;-42
2023/04/26 08:18:50;;;;;;;;;;;;;;;35.08;49.24;100431.13;5118268;27;70319;-42
2023/04/26 08:21:22;;;;;;;;;;;;;;;35.09;49.32;100421.84;5124733;27;65837;-42
2023/04/26 08:23:52;;;;;;;;;;;;;;;35.07;49.72;100432.19;5118220;27;70409;-42
2023/04/26 08:26:22;;;;;;;;;;;;;;;35.07;49.25;100426.72;5118085;27;65991;-43
2023/04/26 08:28:52;;;;;;;;;;;;;;;35.08;49.27;100436.56;5117730;27;69413;-43
2023/04/26 08:31:23;;;;;;;;;;;;;;;35.08;49.36;100430.31;5100175;27;65581;-42
2023/04/26 08:33:53;;;;;;;;;;;;;;;35.08;49.24;100422.94;5118003;27;69942;-43
2023/04/26 08:36:23;;;;;;;;;;;;;;;35.08;49.69;100430.31;5117344;27;65757;-42
2023/04/26 08:38:55;;;;;;;;;;;;;;;35.08;49.44;100431.13;5118623;27;70302;-41
2023/04/26 08:41:25;;;;;;;;;;;;;;;35.09;49.24;100427.31;5122487;27;66586;-41
2023/04/26 08:43:57;;;;;;;;;;;;;;;35.07;49.31;100429.47;5134342;27;69658;-41
2023/04/26 08:46:28;;;;;;;;;;;;;;;35.07;49.37;100424.00;5137713;27;66362;-42
2023/04/26 08:49:08;;;;;;;;;;;;;;;35.08;49.45;100425.66;5138241;27;68897;-42
2023/04/26 08:51:38;;;;;;;;;;;;;;;35.09;49.91;100421.84;5128007;27;66235;-41
2023/04/26 08:54:10;;;;;;;;;;;;;;;35.09;49.60;100416.41;5124151;27;69875;-44
2023/04/26 08:56:43;;;;;;;;;;;;;;;35.11;49.32;100425.16;5138218;27;65474;-43
2023/04/26 08:59:13;;;;;;;;;;;;;;;35.10;49.48;100412.59;5139663;27;70142;-42
2023/04/26 09:01:43;;;;;;;;;;;;;;;35.12;49.95;100415.88;5138414;27;66491;-42
2023/04/26 09:04:14;;;;;;;;;;;;;;;35.12;49.99;100415.88;5141518;27;70628;-42
2023/04/26 09:06:45;;;;;;;;;;;;;;;35.10;49.69;100415.34;5121670;27;66293;-42
2023/04/26 09:09:18;;;;;;;;;;;;;;;35.13;49.59;100417.53;5139100;27;69316;-42
2023/04/26 09:11:54;;;;;;;;;;;;;;;35.14;50.15;100416.44;5120628;27;66907;-42
2023/04/26 09:14:26;;;;;;;;;;;;;;;35.14;50.10;100418.34;5119498;27;68397;-42
2023/04/26 09:16:56;;;;;;;;;;;;;;;34.90;51.38;100415.13;5123955;27;65380;-41
2023/04/26 09:19:36;;;;;;;;;;;;;;;34.72;52.58;100429.13;5137507;27;70300;-40
2023/04/26 09:22:07;;;;;;;;;;;;;;;34.59;53.90;100423.00;5127402;27;66274;-41
2023/04/26 09:24:49;;;;;;;;;;;;;;;34.51;54.83;100420.69;5131738;27;69022;-42
2023/04/26 09:27:20;;;;;;;;;;;;;;;34.43;55.64;100423.88;5133363;27;66627;-42
2023/04/26 09:30:09;;;;;;;;;;;;;;;34.36;55.56;100423.25;5135284;27;69683;-42
2023/04/26 09:32:42;;;;;;;;;;;;;;;34.35;55.86;100427.03;5133477;27;66293;-41
2023/04/26 09:35:18;;;;;;;;;;;;;;;34.33;56.22;100427.31;5133478;27;70330;-42
2023/04/26 09:37:52;;;;;;;;;;;;;;;34.39;56.40;100428.19;5127042;27;66672;-40
2023/04/26 09:40:33;;;;;;;;;;;;;;;34.53;55.74;100426.72;5134734;27;71854;-42
2023/04/26 09:43:03;;;;;;;;;;;;;;;34.65;55.27;100432.84;5137057;27;66887;-41
2023/04/26 09:45:42;;;;;;;;;;;;;;;34.73;54.85;100417.94;5124551;27;69172;-41
2023/04/26 09:48:15;;;;;;;;;;;;;;;34.81;54.52;100425.66;5132716;27;66060;-41
2023/04/26 09:50:45;;;;;;;;;;;;;;;34.88;54.80;100430.88;5128694;27;70227;-43
2023/04/26 09:53:25;;;;;;;;;;;;;;;34.90;54.88;100423.28;5127625;27;66969;-41
2023/04/26 09:55:56;;;;;;;;;;;;;;;34.72;55.98;100426.41;5129061;27;70369;-41
2023/04/26 09:58:26;;;;;;;;;;;;;;;34.57;56.72;100436.03;5131217;27;65971;-41
2023/04/26 10:00:57;;;;;;;;;;;;;;;34.50;57.02;100435.41;5128268;27;69574;-41
2023/04/26 10:03:28;;;;;;;;;;;;;;;34.42;57.45;100428.50;5128702;27;67079;-41
2023/04/26 10:05:59;;;;;;;;;;;;;;;34.40;57.57;100429.84;5130859;27;69768;-41
2023/04/26 10:08:32;;;;;;;;;;;;;;;34.35;58.04;100424.31;5129890;27;65968;-41
2023/04/26 10:11:03;;;;;;;;;;;;;;;34.32;57.71;100430.28;5124064;27;70172;-43
2023/04/26 10:13:34;;;;;;;;;;;;;;;34.25;57.63;100427.75;5125478;27;66613;-43
2023/04/26 10:16:05;;;;;;;;;;;;;;;34.22;57.75;100429.09;5101574;27;70424;-43
2023/04/26 10:18:35;;;;;;;;;;;;;;;34.19;58.02;100429.59;5131850;27;66457;-43
2023/04/26 10:21:09;;;;;;;;;;;;;;;34.15;58.08;100439.34;5133583;27;69695;-43
2023/04/26 10:23:40;;;;;;;;;;;;;;;34.15;58.18;100450.22;5133341;27;65417;-43
2023/04/26 10:26:28;;;;;;;;;;;;;;;34.14;57.89;100440.44;5128625;27;70314;-41
2023/04/26 10:28:58;;;;;;;;;;;;;;;34.08;58.95;100438.72;5131913;27;65504;-44
2023/04/26 10:31:49;;;;;;;;;;;;;;;34.14;58.91;100442.34;5131824;27;69346;-44
2023/04/26 10:34:22;;;;;;;;;;;;;;;34.09;59.17;100451.25;5133796;27;66596;-42
2023/04/26 10:37:07;;;;;;;;;;;;;;;34.09;59.11;100445.81;5133233;27;69414;-42
2023/04/26 10:39:38;;;;;;;;;;;;;;;34.09;59.32;100451.25;5136653;27;66091;-42
2023/04/26 10:42:25;;;;;;;;;;;;;;;34.06;59.78;100451.75;5136624;27;69252;-42
2023/04/26 10:44:57;;;;;;;;;;;;;;;34.07;60.04;100461.56;5133920;27;65488;-42
2023/04/26 10:47:27;;;;;;;;;;;;;;;34.06;60.60;100468.09;5124705;27;70282;-42
2023/04/26 10:50:03;;;;;;;;;;;;;;;34.06;60.74;100473.53;5133360;27;66409;-43
2023/04/26 10:52:34;;;;;;;;;;;;;;;34.08;61.30;100487.72;5133777;27;70083;-43
2023/04/26 10:55:05;;;;;;;;;;;;;;;34.09;61.99;100500.22;5133161;27;66012;-43
2023/04/26 10:57:52;;;;;;;;;;;;;;;34.11;62.42;100508.97;5109906;27;70323;-42
2023/04/26 11:00:29;;;;;;;;;;;;;;;34.22;61.49;100508.03;5132554;27;66934;-42
2023/04/26 11:03:05;;;;;;;;;;;;;;;34.30;60.75;100511.38;5134467;27;70660;-43
2023/04/26 11:05:41;;;;;;;;;;;;;;;34.40;60.25;100514.25;5131284;27;65584;-41
2023/04/26 11:08:16;;;;;;;;;;;;;;;34.46;59.99;100510.50;5134244;27;69740;-42
2023/04/26 11:10:51;;;;;;;;;;;;;;;34.50;59.95;100511.66;5132913;27;65939;-43
2023/04/26 11:13:21;;;;;;;;;;;;;;;34.17;59.23;100447.25;5135248;27;70276;-41
2023/04/26 11:15:59;;;;;;;;;;;;;;;34.54;59.91;100504.63;5133345;27;65056;-43
2023/04/26 11:18:30;;;;;;;;;;;;;;;34.55;60.04;100510.88;5129978;27;69830;-42
2023/04/26 11:21:00;;;;;;;;;;;;;;;34.57;59.81;100523.19;5114493;27;65585;-41
2023/04/26 11:23:32;;;;;;;;;;;;;;;34.58;59.61;100524.88;5133530;27;70459;-41
2023/04/26 11:26:03;;;;;;;;;;;;;;;34.58;59.79;100530.31;5130654;27;65873;-41
2023/04/26 11:28:34;;;;;;;;;;;;;;;34.60;59.73;100532.75;5133107;27;69415;-41
2023/04/26 11:31:06;;;;;;;;;;;;;;;34.58;60.03;100530.31;5134090;27;65514;-41
2023/04/26 11:33:36;;;;;;;;;;;;;;;34.58;59.40;100524.88;5133561;27;69528;-42
2023/04/26 11:36:07;;;;;;;;;;;;;;;34.58;59.14;100532.22;5137054;27;66315;-41
2023/04/26 11:38:37;;;;;;;;;;;;;;;34.58;59.22;100535.75;5097097;27;69173;-42
2023/04/26 11:41:07;;;;;;;;;;;;;;;34.59;59.83;100548.28;5132151;27;67412;-44
2023/04/26 11:43:38;;;;;;;;;;;;;;;34.58;60.07;100545.84;5133024;27;69340;-43
2023/04/26 11:46:08;;;;;;;;;;;;;;;34.57;60.04;100553.16;5131464;27;67101;-41
2023/04/26 11:48:39;;;;;;;;;;;;;;;34.54;59.91;100550.91;5089479;27;69561;-41
2023/04/26 11:51:11;;;;;;;;;;;;;;;34.56;59.89;100564.31;5127158;27;66040;-41
2023/04/26 11:53:41;;;;;;;;;;;;;;;34.55;59.94;100562.63;5130156;27;70966;-40
2023/04/26 11:56:16;;;;;;;;;;;;;;;34.54;59.89;100578.16;5129835;27;66976;-42
2023/04/26 11:58:51;;;;;;;;;;;;;;;34.53;59.76;100571.06;5136621;27;69435;-43
2023/04/26 12:01:23;;;;;;;;;;;;;;;34.51;59.58;100575.94;5117221;27;66348;-42
2023/04/26 12:03:57;;;;;;;;;;;;;;;34.51;60.65;100577.84;5116872;27;69049;-41
2023/04/26 12:06:44;;;;;;;;;;;;;;;34.51;59.44;100586.00;5118560;27;65591;-41
2023/04/26 12:09:14;;;;;;;;;;;;;;;34.46;59.62;100597.66;5116992;27;70627;-41
2023/04/26 12:11:52;;;;;;;;;;;;;;;34.43;58.90;100601.69;5125088;27;65459;-40
2023/04/26 12:14:22;;;;;;;;;;;;;;;34.43;58.20;100603.59;5113260;27;70152;-41
2023/04/26 12:16:53;;;;;;;;;;;;;;;34.43;58.47;100603.59;5127277;27;66019;-41
2023/04/26 12:19:23;;;;;;;;;;;;;;;34.42;58.42;100607.41;5117583;27;70836;-40
2023/04/26 12:21:54;;;;;;;;;;;;;;;34.41;59.01;100613.94;5134289;27;66619;-43
2023/04/26 12:24:28;;;;;;;;;;;;;;;34.38;58.14;100604.38;5126025;27;69936;-43
2023/04/26 12:26:59;;;;;;;;;;;;;;;34.37;58.53;100613.59;5121615;27;65916;-42
2023/04/26 12:29:30;;;;;;;;;;;;;;;34.35;58.52;100614.91;5120782;27;69930;-41
2023/04/26 12:32:00;;;;;;;;;;;;;;;34.33;58.19;100611.66;5130943;27;65342;-41
2023/04/26 12:34:31;;;;;;;;;;;;;;;34.31;58.08;100611.06;5102071;27;70804;-40
2023/04/26 12:37:02;;;;;;;;;;;;;;;34.28;58.59;100612.38;5126171;27;66295;-42
2023/04/26 12:39:32;;;;;;;;;;;;;;;34.26;58.83;100615.34;5124310;27;69803;-41
2023/04/26 12:42:03;;;;;;;;;;;;;;;34.26;58.64;100619.97;5123669;27;66847;-42
2023/04/26 12:44:33;;;;;;;;;;;;;;;34.24;58.42;100628.41;5123778;27;69815;-41
2023/04/26 12:47:03;;;;;;;;;;;;;;;34.24;58.39;100619.38;5113382;27;66274;-41
2023/04/26 12:49:33;;;;;;;;;;;;;;;34.23;58.39;100615.84;5109590;27;70222;-44
2023/04/26 12:52:03;;;;;;;;;;;;;;;34.23;58.55;100626.75;5109276;27;65679;-44
2023/04/26 12:54:34;;;;;;;;;;;;;;;34.21;58.58;100628.91;5134806;27;69215;-45
2023/04/26 12:57:04;;;;;;;;;;;;;;;34.20;58.47;100637.31;5122882;27;66112;-42
2023/04/26 12:59:35;;;;;;;;;;;;;;;34.19;58.86;100646.56;5129387;27;70091;-43
2023/04/26 13:02:06;;;;;;;;;;;;;;;34.18;58.82;100645.72;5109925;27;65451;-43
2023/04/26 13:04:37;;;;;;;;;;;;;;;34.16;58.64;100647.06;5131610;27;69907;-43
2023/04/26 13:07:09;;;;;;;;;;;;;;;34.15;58.53;100651.66;5124267;27;66171;-43
2023/04/26 13:09:39;;;;;;;;;;;;;;;34.04;59.45;100655.25;5120695;27;70261;-44